Data for 03/08/2017

Time Sea-Level Adjusted Pressure Absolute Pressure Temperature Relative Humidity Dew Point   
(mb) (inHg) (mb) (inHg) (C) (F) (%) (C) (F)
00:05 1014 29.94 844 24.92 0.3 32.6 47 -9.7 14.5
00:10 1014 29.94 844 24.92 0.2 32.4 47 -9.8 14.4
00:15 1014 29.94 844 24.92 0.2 32.3 48 -9.7 14.6
00:20 1014 29.94 844 24.92 0.1 32.2 48 -9.6 14.7
00:25 1014 29.94 843 24.89 -0.1 31.9 48 -9.7 14.5
00:30 1014 29.94 843 24.89 -0.1 31.9 47 -10 14.1
00:35 1014 29.94 843 24.89 0.1 32.1 47 -10 14
00:40 1014 29.94 843 24.89 -0 32 49 -9.6 14.7
00:45 1014 29.94 843 24.89 -0.1 31.7 48 -9.9 14.1
00:50 1014 29.94 843 24.89 0 32.1 48 -9.8 14.4
00:55 1014 29.94 843 24.89 0 32 48 -9.8 14.4
01:00 1014 29.94 843 24.89 -0 32 48 -9.7 14.6
01:05 1014 29.94 843 24.89 0.1 32.1 48 -9.7 14.6
01:10 1014 29.94 843 24.89 0.1 32.1 48 -9.7 14.5
01:15 1014 29.94 843 24.89 -0 32 49 -9.6 14.7
01:20 1014 29.94 843 24.89 -0 31.9 49 -9.6 14.8
01:25 1014 29.94 843 24.89 0 32 49 -9.6 14.7
01:30 1013 29.91 843 24.89 0.1 32.1 48 -9.6 14.7
01:35 1013 29.91 843 24.89 0.3 32.5 47 -9.6 14.7
01:40 1013 29.91 843 24.89 0.6 33.1 45 -9.9 14.1
01:45 1013 29.91 843 24.89 1 33.7 45 -9.8 14.4
01:50 1013 29.91 842 24.86 1 33.8 44 -9.8 14.4
01:55 1013 29.91 843 24.89 1 33.8 45 -9.7 14.5
02:00 1013 29.91 843 24.89 0.9 33.6 44 -10 13.9
02:05 1013 29.91 842 24.86 1.2 34.2 43 -9.9 14.1
02:10 1013 29.91 842 24.86 1.3 34.3 47 -8.9 15.9
02:15 1013 29.91 842 24.86 0.8 33.4 47 -9.4 15.1
02:20 1013 29.91 843 24.89 0.9 33.6 44 -10.1 13.8
02:25 1013 29.91 843 24.89 1.5 34.7 42 -10.1 13.8
02:30 1013 29.91 843 24.89 1.8 35.2 41 -10 13.9
02:35 1013 29.91 843 24.89 1.8 35.3 42 -9.7 14.5
02:40 1013 29.91 843 24.89 1.8 35.2 41 -10.1 13.9
02:45 1013 29.91 843 24.89 2 35.7 43 -9.4 15
02:50 1013 29.91 843 24.89 2 35.5 41 -9.9 14.1
02:55 1013 29.91 843 24.89 2.1 35.8 42 -9.6 14.7
03:00 1013 29.91 843 24.89 2.6 36.7 40 -9.6 14.8
03:05 1013 29.91 843 24.89 2.7 36.8 41 -9.4 15.2
03:10 1013 29.91 843 24.89 2.5 36.6 41 -9.3 15.3
03:15 1014 29.94 843 24.89 2.5 36.5 42 -9.1 15.6
03:20 1013 29.91 843 24.89 2.5 36.6 42 -9.1 15.6
03:25 1013 29.91 843 24.89 2.9 37.3 41 -8.9 15.9
03:30 1013 29.91 843 24.89 3 37.4 44 -8.2 17.2
03:35 1013 29.91 843 24.89 3.5 38.3 42 -8.1 17.4
03:40 1013 29.91 842 24.86 4.1 39.3 41 -8 17.7
03:45 1013 29.91 842 24.86 4.2 39.6 42 -7.6 18.3
03:50 1013 29.91 842 24.86 4.2 39.5 42 -7.7 18.1
03:55 1013 29.91 842 24.86 4.2 39.6 42 -7.7 18.2
04:00 1013 29.91 842 24.86 4.3 39.7 41 -7.7 18.1
04:05 1013 29.91 842 24.86 4.4 39.8 41 -7.8 18
04:10 1013 29.91 842 24.86 4.3 39.8 42 -7.3 18.8
04:15 1013 29.91 842 24.86 4.1 39.4 42 -7.6 18.3
04:20 1013 29.91 842 24.86 4.2 39.6 41 -7.8 18
04:25 1013 29.91 842 24.86 4.5 40 42 -7.5 18.5
04:30 1013 29.91 842 24.86 4.5 40.1 42 -7.2 19
04:35 1013 29.91 842 24.86 4.4 39.9 40 -8 17.7
04:40 1013 29.91 842 24.86 4.7 40.5 40 -7.8 18
04:45 1013 29.91 842 24.86 4.6 40.3 41 -7.5 18.5
04:50 1013 29.91 842 24.86 4.5 40 42 -7.5 18.5
04:55 1013 29.91 842 24.86 4.4 39.9 41 -7.6 18.3
05:00 1013 29.91 842 24.86 4.5 40.1 41 -7.6 18.4
05:05 1013 29.91 842 24.86 4.5 40.1 41 -7.5 18.5
05:10 1013 29.91 842 24.86 4.5 40.1 42 -7.4 18.7
05:15 1013 29.91 842 24.86 4.5 40.1 41 -7.6 18.4
05:20 1013 29.91 842 24.86 4.6 40.2 41 -7.5 18.4
05:25 1013 29.91 842 24.86 4.6 40.3 41 -7.6 18.4
05:30 1013 29.91 842 24.86 4.7 40.5 40 -7.8 18
05:35 1013 29.91 842 24.86 4.9 40.8 40 -7.7 18.2
05:40 1013 29.91 842 24.86 5 40.9 39 -7.7 18.1
05:45 1013 29.91 842 24.86 5 41 39 -7.7 18.1
05:50 1013 29.91 842 24.86 5 41 40 -7.6 18.3
05:55 1013 29.91 842 24.86 5 41.1 40 -7.6 18.4
06:00 1013 29.91 842 24.86 5.1 41.1 39 -7.6 18.3
06:05 1013 29.91 842 24.86 5.1 41.1 39 -7.6 18.2
06:10 1013 29.91 842 24.86 5.1 41.2 40 -7.5 18.5
06:15 1013 29.91 842 24.86 5 41 41 -7.2 19
06:20 1013 29.91 842 24.86 5 41 40 -7.6 18.3
06:25 1013 29.91 842 24.86 5 41.1 40 -7.5 18.5
06:30 1013 29.91 842 24.86 5 41 40 -7.5 18.4
06:35 1013 29.91 842 24.86 5.1 41.2 39 -7.7 18.2
06:40 1013 29.91 842 24.86 5.2 41.3 39 -7.8 18
06:45 1013 29.91 842 24.86 5.4 41.7 39 -7.7 18.2
06:50 1013 29.91 842 24.86 5.3 41.5 39 -7.5 18.4
06:55 1013 29.91 842 24.86 5.3 41.5 39 -7.6 18.3
07:00 1013 29.91 842 24.86 5.3 41.5 39 -7.5 18.5
07:05 1013 29.91 842 24.86 5.3 41.5 39 -7.5 18.4
07:10 1013 29.91 842 24.86 5.3 41.5 39 -7.5 18.5
07:15 1013 29.91 842 24.86 5.3 41.5 39 -7.5 18.5
07:20 1013 29.91 842 24.86 5.3 41.6 39 -7.5 18.4
07:25 1013 29.91 842 24.86 5.4 41.6 39 -7.5 18.4
07:30 1013 29.91 842 24.86 5.4 41.8 39 -7.5 18.5
07:35 1013 29.91 842 24.86 5.4 41.7 38 -7.9 17.8
07:40 1013 29.91 842 24.86 5.6 42.1 37 -7.8 17.9
07:45 1013 29.91 842 24.86 5.6 42.2 37 -7.9 17.7
07:50 1013 29.91 842 24.86 5.7 42.2 37 -7.9 17.8
07:55 1013 29.91 842 24.86 5.6 42.1 38 -7.7 18.2
08:00 1013 29.91 842 24.86 5.5 41.9 39 -7.3 18.9
08:05 1013 29.91 842 24.86 5.5 41.9 37 -8.1 17.4
08:10 1013 29.91 842 24.86 5.6 42.1 38 -7.5 18.5
08:15 1013 29.91 842 24.86 5.6 42.1 38 -7.5 18.5
08:20 1013 29.91 842 24.86 5.5 41.9 38 -7.6 18.3
08:25 1013 29.91 842 24.86 5.6 42.1 38 -7.6 18.3
08:30 1013 29.91 842 24.86 5.6 42 38 -7.8 18
08:35 1013 29.91 842 24.86 5.6 42 38 -7.7 18.1
08:40 1013 29.91 842 24.86 5.6 42.1 37 -7.9 17.8
08:45 1013 29.91 842 24.86 5.6 42.1 38 -7.5 18.4
08:50 1013 29.91 842 24.86 5.6 42.1 37 -8 17.6
08:55 1013 29.91 842 24.86 5.7 42.2 37 -7.8 17.9
09:00 1013 29.91 842 24.86 5.6 42.1 38 -7.6 18.3
09:05 1013 29.91 842 24.86 5.6 42.1 37 -7.9 17.8
09:10 1013 29.91 842 24.86 5.7 42.2 37 -7.8 17.9
09:15 1013 29.91 842 24.86 5.6 42.2 37 -7.9 17.8
09:20 1013 29.91 842 24.86 5.8 42.4 37 -7.9 17.7
09:25 1013 29.91 842 24.86 5.8 42.5 37 -7.8 17.9
09:30 1013 29.91 842 24.86 5.8 42.5 37 -7.8 17.9
09:35 1013 29.91 842 24.86 5.9 42.7 36 -8 17.6
09:40 1013 29.91 842 24.86 6.1 42.9 36 -7.9 17.8
09:45 1013 29.91 842 24.86 6.1 42.9 36 -7.9 17.7
09:50 1013 29.91 842 24.86 6.1 43.1 35 -8 17.5
09:55 1013 29.91 842 24.86 6.2 43.2 36 -7.8 18
10:00 1013 29.91 842 24.86 6.3 43.4 35 -8 17.6
10:05 1013 29.91 842 24.86 6.6 43.9 35 -7.8 17.9
10:10 1013 29.91 842 24.86 6.9 44.3 35 -7.7 18.1
10:15 1013 29.91 842 24.86 7.2 44.9 33 -7.9 17.9
10:20 1013 29.91 842 24.86 7.2 45 34 -7.7 18.2
10:25 1013 29.91 842 24.86 7.2 44.9 33 -7.9 17.8
10:30 1013 29.91 842 24.86 7.2 45 34 -7.7 18.1
10:35 1013 29.91 842 24.86 7.4 45.4 33 -8 17.6
10:40 1013 29.91 842 24.86 7.6 45.8 33 -7.8 17.9
10:45 1013 29.91 842 24.86 7.8 46 32 -7.9 17.8
10:50 1013 29.91 842 24.86 8.1 46.6 32 -7.7 18.1
10:55 1013 29.91 842 24.86 8.3 47 31 -8 17.6
11:00 1013 29.91 842 24.86 8.6 47.5 30 -8.2 17.3
11:05 1013 29.91 842 24.86 8.5 47.3 30 -7.9 17.7
11:10 1013 29.91 842 24.86 8.8 47.9 31 -7.5 18.5
11:15 1013 29.91 842 24.86 9 48.1 30 -7.7 18.2
11:20 1013 29.91 842 24.86 9 48.2 30 -7.6 18.2
11:25 1013 29.91 842 24.86 9.1 48.4 31 -7.3 18.8
11:30 1013 29.91 842 24.86 8.8 47.9 30 -7.7 18.1
11:35 1013 29.91 842 24.86 8.8 47.9 31 -7.5 18.6
11:40 1013 29.91 842 24.86 9 48.1 30 -7.6 18.4
11:45 1013 29.91 842 24.86 8.8 47.9 31 -7.3 18.9
11:50 1013 29.91 842 24.86 9.1 48.3 30 -7.5 18.6
11:55 1013 29.91 842 24.86 9.3 48.7 31 -7.1 19.3
12:00 1013 29.91 842 24.86 9.2 48.5 30 -7.6 18.4
12:05 1013 29.91 842 24.86 9.3 48.7 29 -7.7 18.1
12:10 1013 29.91 842 24.86 9.5 49 29 -7.6 18.3
12:15 1013 29.91 842 24.86 9.7 49.5 30 -6.9 19.7
12:20 1013 29.91 842 24.86 9.6 49.3 31 -6.8 19.7
12:25 1013 29.91 842 24.86 9.5 49 30 -7 19.3
12:30 1013 29.91 842 24.86 9.5 49 30 -7.2 19.1
12:35 1013 29.91 842 24.86 9.8 49.7 29 -7.5 18.4
12:40 1013 29.91 842 24.86 10 50.1 30 -6.6 20
12:45 1013 29.91 842 24.86 10.1 50.3 29 -7.1 19.3
12:50 1014 29.94 843 24.89 9.8 49.6 31 -6.5 20.4
12:55 1014 29.94 843 24.89 8.4 47.1 45 -2.8 26.9
13:00 1014 29.94 843 24.89 6.4 43.5 54 -2.3 27.8
13:05 1014 29.94 843 24.89 5.4 41.8 59 -2 28.4
13:10 1014 29.94 843 24.89 4.9 40.9 62 -1.8 28.7
13:15 1014 29.94 843 24.89 4.8 40.7 63 -1.6 29.2
13:20 1014 29.94 843 24.89 4.8 40.6 63 -1.6 29.1
13:25 1014 29.94 843 24.89 4.8 40.7 64 -1.4 29.5
13:30 1014 29.94 844 24.92 4.9 40.8 65 -1.2 29.8
13:35 1014 29.94 844 24.92 5 41.1 65 -0.9 30.3
13:40 1015 29.97 844 24.92 5.1 41.2 64 -1.2 29.8
13:45 1015 29.97 844 24.92 5 41 65 -1.1 30
13:50 1015 29.97 844 24.92 5.1 41.2 64 -1.2 29.9
13:55 1015 29.97 844 24.92 5.5 41.9 62 -1.3 29.7
14:00 1015 29.97 844 24.92 5.6 42.1 61 -1.3 29.6
14:05 1014 29.94 844 24.92 5.7 42.3 61 -1.1 29.9
14:10 1014 29.94 843 24.89 5.4 41.7 58 -2.2 28
14:15 1014 29.94 843 24.89 5.6 42 59 -1.9 28.6
14:20 1014 29.94 843 24.89 5.9 42.6 59 -1.6 29.2
14:25 1014 29.94 843 24.89 6.6 43.9 54 -1.9 28.5
14:30 1014 29.94 843 24.89 6.9 44.4 54 -1.7 29
14:35 1014 29.94 843 24.89 6.6 43.8 54 -2.1 28.1
14:40 1014 29.94 843 24.89 6.3 43.3 55 -2 28.5
14:45 1014 29.94 843 24.89 6.3 43.4 55 -2.1 28.2
14:50 1014 29.94 843 24.89 6.4 43.5 54 -2.3 27.8
14:55 1014 29.94 843 24.89 6.4 43.6 53 -2.5 27.6
15:00 1014 29.94 843 24.89 6.4 43.5 53 -2.4 27.8
15:05 1014 29.94 843 24.89 6.5 43.8 52 -2.6 27.4
15:10 1014 29.94 843 24.89 6.7 44 53 -2.3 27.8
15:15 1014 29.94 843 24.89 6.6 43.8 52 -2.5 27.6
15:20 1014 29.94 843 24.89 6.5 43.6 53 -2.5 27.5
15:25 1014 29.94 843 24.89 6.7 44 53 -2.3 27.8
15:30 1014 29.94 843 24.89 6.4 43.5 50 -3.2 26.3
15:35 1014 29.94 843 24.89 6.5 43.7 53 -2.3 27.8
15:40 1013 29.91 843 24.89 6.5 43.7 52 -2.7 27.1
15:45 1013 29.91 843 24.89 6.2 43.2 54 -2.5 27.6
15:50 1014 29.94 843 24.89 6.2 43.1 52 -2.9 26.8
15:55 1014 29.94 843 24.89 6.7 44 44 -4.6 23.7
16:00 1013 29.91 843 24.89 7.6 45.7 41 -4.6 23.7
16:05 1013 29.91 843 24.89 9.1 48.3 31 -7.3 18.8
16:10 1014 29.94 843 24.89 9.8 49.7 31 -6.6 20.2
16:15 1014 29.94 843 24.89 9.9 49.8 30 -6.7 20
16:20 1014 29.94 843 24.89 9.8 49.6 30 -7 19.4
16:25 1014 29.94 843 24.89 10.3 50.5 30 -6.6 20.1
16:30 1014 29.94 843 24.89 10.5 50.9 30 -6.4 20.5
16:35 1014 29.94 843 24.89 10.7 51.3 31 -5.9 21.4
16:40 1014 29.94 843 24.89 10.9 51.5 28 -6.8 19.7
16:45 1013 29.91 843 24.89 10.4 50.8 30 -6.3 20.7
16:50 1014 29.94 843 24.89 10.1 50.2 29 -7.1 19.2
16:55 1014 29.94 843 24.89 9.9 49.9 28 -7.5 18.5
17:00 1014 29.94 843 24.89 9.8 49.6 28 -7.9 17.8
17:05 1014 29.94 843 24.89 9.7 49.4 29 -7.7 18.2
17:10 1014 29.94 843 24.89 9.6 49.2 30 -7.3 18.9
17:15 1014 29.94 843 24.89 9.5 49.1 30 -7.3 18.8
17:20 1014 29.94 843 24.89 8.8 47.9 45 -2.4 27.7
17:25 1014 29.94 843 24.89 7.2 45 49 -2.7 27.1
17:30 1014 29.94 843 24.89 6.2 43.2 52 -2.8 26.9
17:35 1014 29.94 844 24.92 5.5 42 55 -2.8 27
17:40 1014 29.94 844 24.92 5.2 41.3 56 -2.8 27
17:45 1015 29.97 844 24.92 5 41 57 -2.7 27.1
17:50 1015 29.97 844 24.92 5 41 57 -2.7 27.1
17:55 1015 29.97 844 24.92 5.1 41.2 57 -2.8 27
18:00 1015 29.97 844 24.92 5.2 41.3 56 -2.9 26.8
18:05 1015 29.97 844 24.92 5.2 41.3 57 -2.7 27.1
18:10 1015 29.97 844 24.92 5.2 41.3 57 -2.6 27.4
18:15 1015 29.97 844 24.92 5.1 41.2 57 -2.7 27.1
18:20 1015 29.97 844 24.92 4.8 40.7 60 -2.3 27.9
18:25 1015 29.97 844 24.92 4.8 40.6 57 -3.1 26.4
18:30 1015 29.97 844 24.92 4.7 40.5 55 -3.5 25.7
18:35 1015 29.97 844 24.92 4.9 40.8 54 -3.5 25.6
18:40 1015 29.97 845 24.95 4.9 40.9 55 -3.4 25.9
18:45 1015 29.97 845 24.95 5 40.9 54 -3.5 25.7
18:50 1015 29.97 845 24.95 5.1 41.1 54 -3.5 25.7
18:55 1016 30 845 24.95 5.2 41.3 53 -3.5 25.7
19:00 1016 30 845 24.95 5.2 41.3 53 -3.7 25.4
19:05 1016 30 845 24.95 5.2 41.4 53 -3.5 25.7
19:10 1015 29.97 845 24.95 5 41.1 54 -3.6 25.6
19:15 1016 30 845 24.95 4.9 40.8 54 -3.6 25.5
19:20 1016 30 845 24.95 4.8 40.7 54 -3.6 25.5
19:25 1016 30 845 24.95 4.7 40.5 56 -3.3 26
19:30 1016 30 845 24.95 4.4 39.9 57 -3.4 25.9
19:35 1016 30 845 24.95 4.4 39.9 57 -3.5 25.7
19:40 1016 30 845 24.95 4.2 39.6 57 -3.6 25.6
19:45 1015 29.97 845 24.95 4.2 39.6 57 -3.4 25.8
19:50 1015 29.97 845 24.95 4.2 39.6 56 -3.7 25.3
19:55 1015 29.97 845 24.95 4.3 39.8 56 -3.7 25.4
20:00 1015 29.97 845 24.95 4.3 39.8 57 -3.6 25.6
20:05 1015 29.97 845 24.95 4.2 39.6 56 -3.9 25
20:10 1015 29.97 845 24.95 4.3 39.7 55 -3.9 25
20:15 1015 29.97 845 24.95 4.3 39.7 56 -3.8 25.2
20:20 1015 29.97 844 24.92 4.3 39.7 56 -3.8 25.2
20:25 1015 29.97 844 24.92 4.2 39.5 56 -3.8 25.1
20:30 1015 29.97 844 24.92 4.2 39.5 56 -3.8 25.1
20:35 1015 29.97 844 24.92 4.4 39.9 56 -3.7 25.3
20:40 1015 29.97 844 24.92 4.5 40.1 55 -3.8 25.2
20:45 1015 29.97 844 24.92 4.3 39.8 56 -3.7 25.3
20:50 1015 29.97 844 24.92 4.3 39.7 56 -3.8 25.1
20:55 1015 29.97 844 24.92 4.2 39.6 56 -3.7 25.3
21:00 1015 29.97 844 24.92 4.3 39.7 56 -3.8 25.1
21:05 1015 29.97 844 24.92 4.4 40 55 -3.9 24.9
21:10 1015 29.97 844 24.92 4.5 40.1 55 -3.8 25.2
21:15 1015 29.97 844 24.92 4.5 40 55 -3.9 25
21:20 1015 29.97 844 24.92 4.5 40.1 54 -3.9 25
21:25 1015 29.97 844 24.92 4.5 40.1 55 -3.8 25.2
21:30 1015 29.97 844 24.92 4.5 40 54 -3.9 24.9
21:35 1015 29.97 844 24.92 4.5 40 55 -3.9 25
21:40 1015 29.97 844 24.92 4.4 40 55 -3.8 25.2
21:45 1015 29.97 844 24.92 4.4 39.9 55 -3.9 25.1
21:50 1015 29.97 844 24.92 4.4 39.9 55 -3.8 25.1
21:55 1015 29.97 844 24.92 4.4 39.8 55 -3.9 25
22:00 1015 29.97 844 24.92 4.4 39.9 55 -3.9 24.9
22:05 1015 29.97 844 24.92 4.3 39.7 56 -3.8 25.2
22:10 1015 29.97 844 24.92 4.3 39.7 55 -3.9 25.1
22:15 1015 29.97 844 24.92 4.3 39.7 56 -3.8 25.2
22:20 1015 29.97 844 24.92 4 39.2 60 -3.1 26.4
22:25 1015 29.97 844 24.92 3.2 37.8 62 -3.3 26
22:30 1015 29.97 844 24.92 3.1 37.6 61 -3.6 25.5
22:35 1015 29.97 844 24.92 3.1 37.6 61 -3.6 25.5
22:40 1015 29.97 844 24.92 3.2 37.8 61 -3.5 25.6
22:45 1015 29.97 844 24.92 3.4 38.1 60 -3.6 25.4
22:50 1015 29.97 844 24.92 3.5 38.3 60 -3.6 25.5
22:55 1015 29.97 844 24.92 3.6 38.5 59 -3.6 25.6
23:00 1015 29.97 844 24.92 3.6 38.5 60 -3.5 25.7
23:05 1015 29.97 844 24.92 3.6 38.5 60 -3.5 25.7
23:10 1015 29.97 844 24.92 3.6 38.4 60 -3.4 25.8
23:15 1015 29.97 844 24.92 3.4 38.2 60 -3.5 25.7
23:20 1015 29.97 844 24.92 3.3 38 60 -3.7 25.3
23:25 1015 29.97 845 24.95 3.2 37.8 60 -3.7 25.3
23:30 1015 29.97 845 24.95 3.2 37.7 61 -3.6 25.6
23:35 1016 30 845 24.95 2.9 37.3 62 -3.5 25.6
23:40 1016 30 845 24.95 2.6 36.8 63 -3.6 25.5
23:45 1016 30 845 24.95 2.4 36.4 65 -3.5 25.8
23:50 1016 30 845 24.95 2.3 36.1 67 -3.3 26.1
23:55 1016 30 845 24.95 2.2 35.9 68 -3.2 26.3
24:00 1016 30 845 24.95 1.9 35.4 69 -3.2 26.3